sensor_id;sensor_type;location;lat;lon;timestamp;P1;durP1;ratioP1;P2;durP2;ratioP2
61473;SDS011;53694;49.784;30.150;2023-08-06T00:01:00;15.19;;;11.99;;
61473;SDS011;53694;49.784;30.150;2023-08-06T00:02:01;14.72;;;12.38;;
61473;SDS011;53694;49.784;30.150;2023-08-06T00:03:03;16.29;;;11.95;;
61473;SDS011;53694;49.784;30.150;2023-08-06T00:04:05;16.61;;;11.99;;
61473;SDS011;53694;49.784;30.150;2023-08-06T00:05:07;14.56;;;12.14;;
61473;SDS011;53694;49.784;30.150;2023-08-06T00:06:09;16.39;;;12.72;;
61473;SDS011;53694;49.784;30.150;2023-08-06T00:07:10;15.49;;;12.74;;
61473;SDS011;53694;49.784;30.150;2023-08-06T00:08:12;15.19;;;12.87;;
61473;SDS011;53694;49.784;30.150;2023-08-06T00:09:13;14.96;;;12.66;;
61473;SDS011;53694;49.784;30.150;2023-08-06T00:10:15;15.61;;;13.67;;
61473;SDS011;53694;49.784;30.150;2023-08-06T00:11:17;16.15;;;13.48;;
61473;SDS011;53694;49.784;30.150;2023-08-06T00:12:19;18.08;;;13.10;;
61473;SDS011;53694;49.784;30.150;2023-08-06T00:13:20;14.74;;;10.61;;
61473;SDS011;53694;49.784;30.150;2023-08-06T00:14:22;14.62;;;10.46;;
61473;SDS011;53694;49.784;30.150;2023-08-06T00:15:24;13.41;;;9.91;;
61473;SDS011;53694;49.784;30.150;2023-08-06T00:16:26;13.69;;;10.29;;
61473;SDS011;53694;49.784;30.150;2023-08-06T00:17:27;14.40;;;9.56;;
61473;SDS011;53694;49.784;30.150;2023-08-06T00:18:29;13.03;;;9.36;;
61473;SDS011;53694;49.784;30.150;2023-08-06T00:19:31;11.46;;;9.58;;
61473;SDS011;53694;49.784;30.150;2023-08-06T00:20:33;15.15;;;9.28;;
61473;SDS011;53694;49.784;30.150;2023-08-06T00:21:34;12.01;;;9.40;;
61473;SDS011;53694;49.784;30.150;2023-08-06T00:22:36;14.12;;;10.14;;
61473;SDS011;53694;49.784;30.150;2023-08-06T00:23:39;13.28;;;11.36;;
61473;SDS011;53694;49.784;30.150;2023-08-06T00:24:41;16.15;;;11.49;;
61473;SDS011;53694;49.784;30.150;2023-08-06T00:25:43;16.87;;;11.28;;
61473;SDS011;53694;49.784;30.150;2023-08-06T00:26:45;15.17;;;12.24;;
61473;SDS011;53694;49.784;30.150;2023-08-06T00:27:46;14.79;;;11.66;;
61473;SDS011;53694;49.784;30.150;2023-08-06T00:28:47;14.77;;;12.26;;
61473;SDS011;53694;49.784;30.150;2023-08-06T00:29:49;16.16;;;12.81;;
61473;SDS011;53694;49.784;30.150;2023-08-06T00:30:54;17.03;;;13.24;;
61473;SDS011;53694;49.784;30.150;2023-08-06T00:31:56;16.18;;;12.79;;
61473;SDS011;53694;49.784;30.150;2023-08-06T00:32:58;14.96;;;13.09;;
61473;SDS011;53694;49.784;30.150;2023-08-06T00:33:59;15.41;;;11.50;;
61473;SDS011;53694;49.784;30.150;2023-08-06T00:35:01;15.32;;;10.54;;
61473;SDS011;53694;49.784;30.150;2023-08-06T00:36:02;14.69;;;10.15;;
61473;SDS011;53694;49.784;30.150;2023-08-06T00:37:04;13.16;;;9.94;;
61473;SDS011;53694;49.784;30.150;2023-08-06T00:38:06;13.14;;;9.53;;
61473;SDS011;53694;49.784;30.150;2023-08-06T00:39:07;13.19;;;9.94;;
61473;SDS011;53694;49.784;30.150;2023-08-06T00:40:10;11.62;;;9.03;;
61473;SDS011;53694;49.784;30.150;2023-08-06T00:41:12;13.61;;;9.48;;
61473;SDS011;53694;49.784;30.150;2023-08-06T00:42:13;12.54;;;8.94;;
61473;SDS011;53694;49.784;30.150;2023-08-06T00:43:15;13.69;;;9.69;;
61473;SDS011;53694;49.784;30.150;2023-08-06T00:44:16;12.01;;;9.89;;
61473;SDS011;53694;49.784;30.150;2023-08-06T00:45:18;12.45;;;10.21;;
61473;SDS011;53694;49.784;30.150;2023-08-06T00:46:20;13.72;;;11.18;;
61473;SDS011;53694;49.784;30.150;2023-08-06T00:47:22;13.29;;;11.45;;
61473;SDS011;53694;49.784;30.150;2023-08-06T00:48:24;15.94;;;11.82;;
61473;SDS011;53694;49.784;30.150;2023-08-06T00:49:26;21.71;;;12.49;;
61473;SDS011;53694;49.784;30.150;2023-08-06T00:50:28;16.54;;;12.20;;
61473;SDS011;53694;49.784;30.150;2023-08-06T00:51:30;16.82;;;12.16;;
61473;SDS011;53694;49.784;30.150;2023-08-06T00:52:32;15.01;;;12.67;;
61473;SDS011;53694;49.784;30.150;2023-08-06T00:53:33;18.45;;;12.41;;
61473;SDS011;53694;49.784;30.150;2023-08-06T00:54:35;12.79;;;9.90;;
61473;SDS011;53694;49.784;30.150;2023-08-06T00:55:37;16.39;;;9.83;;
61473;SDS011;53694;49.784;30.150;2023-08-06T00:56:40;12.63;;;9.67;;
61473;SDS011;53694;49.784;30.150;2023-08-06T00:57:43;13.18;;;9.31;;
61473;SDS011;53694;49.784;30.150;2023-08-06T00:58:45;11.84;;;9.46;;
61473;SDS011;53694;49.784;30.150;2023-08-06T00:59:47;16.28;;;9.29;;
61473;SDS011;53694;49.784;30.150;2023-08-06T01:00:49;12.09;;;8.99;;
61473;SDS011;53694;49.784;30.150;2023-08-06T01:01:50;12.84;;;9.04;;
61473;SDS011;53694;49.784;30.150;2023-08-06T01:02:53;13.07;;;9.11;;
61473;SDS011;53694;49.784;30.150;2023-08-06T01:03:54;13.03;;;9.18;;
61473;SDS011;53694;49.784;30.150;2023-08-06T01:04:57;13.96;;;10.68;;
61473;SDS011;53694;49.784;30.150;2023-08-06T01:05:58;14.19;;;10.69;;
61473;SDS011;53694;49.784;30.150;2023-08-06T01:09:44;15.80;;;12.14;;
61473;SDS011;53694;49.784;30.150;2023-08-06T01:12:18;15.02;;;12.83;;
61473;SDS011;53694;49.784;30.150;2023-08-06T01:13:27;14.99;;;11.48;;
61473;SDS011;53694;49.784;30.150;2023-08-06T01:14:50;13.48;;;10.66;;
61473;SDS011;53694;49.784;30.150;2023-08-06T01:16:05;13.92;;;10.17;;
61473;SDS011;53694;49.784;30.150;2023-08-06T01:17:07;12.29;;;9.62;;
61473;SDS011;53694;49.784;30.150;2023-08-06T01:18:10;12.37;;;9.76;;
61473;SDS011;53694;49.784;30.150;2023-08-06T01:19:18;11.43;;;8.85;;
61473;SDS011;53694;49.784;30.150;2023-08-06T01:20:20;11.20;;;9.22;;
61473;SDS011;53694;49.784;30.150;2023-08-06T01:21:22;11.12;;;9.00;;
61473;SDS011;53694;49.784;30.150;2023-08-06T01:22:23;11.50;;;9.24;;
61473;SDS011;53694;49.784;30.150;2023-08-06T01:23:25;12.85;;;9.46;;
61473;SDS011;53694;49.784;30.150;2023-08-06T01:24:26;12.91;;;9.45;;
61473;SDS011;53694;49.784;30.150;2023-08-06T01:25:40;13.81;;;10.19;;
61473;SDS011;53694;49.784;30.150;2023-08-06T01:27:49;13.08;;;10.62;;
61473;SDS011;53694;49.784;30.150;2023-08-06T01:31:20;16.71;;;12.17;;
61473;SDS011;53694;49.784;30.150;2023-08-06T01:32:23;15.92;;;13.05;;
61473;SDS011;53694;49.784;30.150;2023-08-06T01:33:26;13.04;;;10.59;;
61473;SDS011;53694;49.784;30.150;2023-08-06T01:34:31;12.21;;;10.42;;
61473;SDS011;53694;49.784;30.150;2023-08-06T01:35:35;12.16;;;9.54;;
61473;SDS011;53694;49.784;30.150;2023-08-06T01:36:38;14.48;;;10.17;;
61473;SDS011;53694;49.784;30.150;2023-08-06T01:37:41;11.01;;;8.85;;
61473;SDS011;53694;49.784;30.150;2023-08-06T01:38:43;12.31;;;10.02;;
61473;SDS011;53694;49.784;30.150;2023-08-06T01:39:45;13.43;;;9.60;;
61473;SDS011;53694;49.784;30.150;2023-08-06T01:40:47;12.61;;;9.34;;
61473;SDS011;53694;49.784;30.150;2023-08-06T01:41:48;13.17;;;9.23;;
61473;SDS011;53694;49.784;30.150;2023-08-06T01:42:50;13.51;;;9.88;;
61473;SDS011;53694;49.784;30.150;2023-08-06T01:43:51;13.86;;;10.02;;
61473;SDS011;53694;49.784;30.150;2023-08-06T01:44:53;13.39;;;9.94;;
61473;SDS011;53694;49.784;30.150;2023-08-06T01:45:54;13.79;;;11.21;;
61473;SDS011;53694;49.784;30.150;2023-08-06T01:46:56;16.55;;;11.53;;
61473;SDS011;53694;49.784;30.150;2023-08-06T01:47:57;15.88;;;12.07;;
61473;SDS011;53694;49.784;30.150;2023-08-06T01:48:59;16.41;;;12.36;;
61473;SDS011;53694;49.784;30.150;2023-08-06T01:50:00;15.96;;;12.87;;
61473;SDS011;53694;49.784;30.150;2023-08-06T01:51:05;17.03;;;12.21;;
61473;SDS011;53694;49.784;30.150;2023-08-06T01:52:07;13.46;;;10.39;;
61473;SDS011;53694;49.784;30.150;2023-08-06T01:53:08;13.33;;;10.01;;
61473;SDS011;53694;49.784;30.150;2023-08-06T01:54:10;12.74;;;9.48;;
61473;SDS011;53694;49.784;30.150;2023-08-06T01:55:11;12.27;;;9.45;;
61473;SDS011;53694;49.784;30.150;2023-08-06T01:56:14;14.27;;;9.70;;
61473;SDS011;53694;49.784;30.150;2023-08-06T01:57:15;13.07;;;9.72;;
61473;SDS011;53694;49.784;30.150;2023-08-06T01:58:17;13.89;;;9.71;;
61473;SDS011;53694;49.784;30.150;2023-08-06T01:59:18;13.84;;;9.60;;
61473;SDS011;53694;49.784;30.150;2023-08-06T02:00:20;10.99;;;8.89;;
61473;SDS011;53694;49.784;30.150;2023-08-06T02:01:21;11.81;;;9.71;;
61473;SDS011;53694;49.784;30.150;2023-08-06T02:02:23;11.34;;;9.29;;
61473;SDS011;53694;49.784;30.150;2023-08-06T02:03:24;13.66;;;11.11;;
61473;SDS011;53694;49.784;30.150;2023-08-06T02:04:26;12.57;;;10.96;;
61473;SDS011;53694;49.784;30.150;2023-08-06T02:05:27;19.99;;;11.23;;
61473;SDS011;53694;49.784;30.150;2023-08-06T02:06:29;14.51;;;11.34;;
61473;SDS011;53694;49.784;30.150;2023-08-06T02:07:30;15.31;;;13.14;;
61473;SDS011;53694;49.784;30.150;2023-08-06T02:08:32;17.21;;;12.42;;
61473;SDS011;53694;49.784;30.150;2023-08-06T02:09:33;15.16;;;12.99;;
61473;SDS011;53694;49.784;30.150;2023-08-06T02:10:35;12.97;;;11.04;;
61473;SDS011;53694;49.784;30.150;2023-08-06T02:11:36;14.08;;;10.76;;
61473;SDS011;53694;49.784;30.150;2023-08-06T02:12:38;12.44;;;10.44;;
61473;SDS011;53694;49.784;30.150;2023-08-06T02:13:39;14.61;;;9.81;;
61473;SDS011;53694;49.784;30.150;2023-08-06T02:14:41;14.45;;;9.96;;
61473;SDS011;53694;49.784;30.150;2023-08-06T02:15:43;13.34;;;9.48;;
61473;SDS011;53694;49.784;30.150;2023-08-06T02:16:45;11.95;;;9.95;;
61473;SDS011;53694;49.784;30.150;2023-08-06T02:17:46;14.36;;;9.84;;
61473;SDS011;53694;49.784;30.150;2023-08-06T02:18:48;12.66;;;9.69;;
61473;SDS011;53694;49.784;30.150;2023-08-06T02:19:49;11.25;;;9.92;;
61473;SDS011;53694;49.784;30.150;2023-08-06T02:21:00;12.69;;;9.72;;
61473;SDS011;53694;49.784;30.150;2023-08-06T02:22:02;12.72;;;9.55;;
61473;SDS011;53694;49.784;30.150;2023-08-06T02:23:04;15.27;;;10.15;;
61473;SDS011;53694;49.784;30.150;2023-08-06T02:24:05;14.72;;;10.71;;
61473;SDS011;53694;49.784;30.150;2023-08-06T02:25:07;14.26;;;11.49;;
61473;SDS011;53694;49.784;30.150;2023-08-06T02:26:09;13.01;;;11.52;;
61473;SDS011;53694;49.784;30.150;2023-08-06T02:27:11;13.44;;;11.63;;
61473;SDS011;53694;49.784;30.150;2023-08-06T02:28:12;16.27;;;12.38;;
61473;SDS011;53694;49.784;30.150;2023-08-06T02:29:14;14.34;;;12.36;;
61473;SDS011;53694;49.784;30.150;2023-08-06T02:30:16;16.50;;;13.58;;
61473;SDS011;53694;49.784;30.150;2023-08-06T02:31:17;16.23;;;11.80;;
61473;SDS011;53694;49.784;30.150;2023-08-06T02:32:19;14.67;;;11.43;;
61473;SDS011;53694;49.784;30.150;2023-08-06T02:33:21;13.02;;;10.57;;
61473;SDS011;53694;49.784;30.150;2023-08-06T02:34:22;13.66;;;10.01;;
61473;SDS011;53694;49.784;30.150;2023-08-06T02:35:24;17.19;;;11.37;;
61473;SDS011;53694;49.784;30.150;2023-08-06T02:36:25;13.15;;;10.26;;
61473;SDS011;53694;49.784;30.150;2023-08-06T02:37:27;13.66;;;10.19;;
61473;SDS011;53694;49.784;30.150;2023-08-06T02:38:28;15.45;;;11.08;;
61473;SDS011;53694;49.784;30.150;2023-08-06T02:39:30;13.41;;;10.36;;
61473;SDS011;53694;49.784;30.150;2023-08-06T02:40:32;13.41;;;9.96;;
61473;SDS011;53694;49.784;30.150;2023-08-06T02:41:33;14.26;;;9.60;;
61473;SDS011;53694;49.784;30.150;2023-08-06T02:42:35;15.44;;;10.63;;
61473;SDS011;53694;49.784;30.150;2023-08-06T02:43:36;14.31;;;10.58;;
61473;SDS011;53694;49.784;30.150;2023-08-06T02:44:38;14.24;;;11.07;;
61473;SDS011;53694;49.784;30.150;2023-08-06T02:45:39;13.69;;;12.15;;
61473;SDS011;53694;49.784;30.150;2023-08-06T02:46:41;15.55;;;12.41;;
61473;SDS011;53694;49.784;30.150;2023-08-06T02:47:43;15.69;;;12.69;;
61473;SDS011;53694;49.784;30.150;2023-08-06T02:48:44;15.73;;;13.46;;
61473;SDS011;53694;49.784;30.150;2023-08-06T02:49:46;15.87;;;13.66;;
61473;SDS011;53694;49.784;30.150;2023-08-06T02:50:48;15.53;;;13.70;;
61473;SDS011;53694;49.784;30.150;2023-08-06T02:51:49;15.40;;;12.79;;
61473;SDS011;53694;49.784;30.150;2023-08-06T02:52:51;15.46;;;11.27;;
61473;SDS011;53694;49.784;30.150;2023-08-06T02:53:52;16.56;;;11.41;;
61473;SDS011;53694;49.784;30.150;2023-08-06T02:54:54;14.33;;;11.22;;
61473;SDS011;53694;49.784;30.150;2023-08-06T02:55:55;14.01;;;10.55;;
61473;SDS011;53694;49.784;30.150;2023-08-06T02:56:57;14.52;;;10.51;;
61473;SDS011;53694;49.784;30.150;2023-08-06T02:57:58;13.67;;;10.81;;
61473;SDS011;53694;49.784;30.150;2023-08-06T02:59:00;14.33;;;10.67;;
61473;SDS011;53694;49.784;30.150;2023-08-06T03:00:02;12.84;;;10.45;;
61473;SDS011;53694;49.784;30.150;2023-08-06T03:01:04;15.99;;;10.23;;
61473;SDS011;53694;49.784;30.150;2023-08-06T03:02:07;13.59;;;10.81;;
61473;SDS011;53694;49.784;30.150;2023-08-06T03:03:09;16.60;;;11.20;;
61473;SDS011;53694;49.784;30.150;2023-08-06T03:04:11;13.71;;;11.28;;
61473;SDS011;53694;49.784;30.150;2023-08-06T03:05:12;15.34;;;12.10;;
61473;SDS011;53694;49.784;30.150;2023-08-06T03:06:14;14.26;;;12.49;;
61473;SDS011;53694;49.784;30.150;2023-08-06T03:07:15;17.00;;;13.41;;
61473;SDS011;53694;49.784;30.150;2023-08-06T03:08:17;17.33;;;14.14;;
61473;SDS011;53694;49.784;30.150;2023-08-06T03:09:18;17.83;;;13.65;;
61473;SDS011;53694;49.784;30.150;2023-08-06T03:10:20;17.24;;;13.84;;
61473;SDS011;53694;49.784;30.150;2023-08-06T03:11:22;17.46;;;13.29;;
61473;SDS011;53694;49.784;30.150;2023-08-06T03:12:23;14.81;;;11.24;;
61473;SDS011;53694;49.784;30.150;2023-08-06T03:13:25;13.61;;;10.79;;
61473;SDS011;53694;49.784;30.150;2023-08-06T03:14:26;14.36;;;10.56;;
61473;SDS011;53694;49.784;30.150;2023-08-06T03:15:28;13.44;;;10.94;;
61473;SDS011;53694;49.784;30.150;2023-08-06T03:16:30;13.44;;;10.81;;
61473;SDS011;53694;49.784;30.150;2023-08-06T03:17:31;12.49;;;9.91;;
61473;SDS011;53694;49.784;30.150;2023-08-06T03:18:33;13.29;;;10.31;;
61473;SDS011;53694;49.784;30.150;2023-08-06T03:19:35;15.39;;;10.81;;
61473;SDS011;53694;49.784;30.150;2023-08-06T03:20:37;15.36;;;10.08;;
61473;SDS011;53694;49.784;30.150;2023-08-06T03:21:38;14.98;;;10.81;;
61473;SDS011;53694;49.784;30.150;2023-08-06T03:22:40;15.34;;;10.90;;
61473;SDS011;53694;49.784;30.150;2023-08-06T03:23:41;16.19;;;11.73;;
61473;SDS011;53694;49.784;30.150;2023-08-06T03:24:43;15.58;;;12.59;;
61473;SDS011;53694;49.784;30.150;2023-08-06T03:25:44;16.06;;;12.83;;
61473;SDS011;53694;49.784;30.150;2023-08-06T03:26:46;17.11;;;13.45;;
61473;SDS011;53694;49.784;30.150;2023-08-06T03:27:48;15.33;;;13.37;;
61473;SDS011;53694;49.784;30.150;2023-08-06T03:28:49;16.87;;;14.67;;
61473;SDS011;53694;49.784;30.150;2023-08-06T03:29:51;21.22;;;14.35;;
61473;SDS011;53694;49.784;30.150;2023-08-06T03:31:03;21.51;;;12.91;;
61473;SDS011;53694;49.784;30.150;2023-08-06T03:32:02;14.42;;;11.64;;
61473;SDS011;53694;49.784;30.150;2023-08-06T03:33:03;20.51;;;12.47;;
61473;SDS011;53694;49.784;30.150;2023-08-06T03:34:05;14.09;;;11.15;;
61473;SDS011;53694;49.784;30.150;2023-08-06T03:35:07;13.93;;;10.00;;
61473;SDS011;53694;49.784;30.150;2023-08-06T03:36:10;13.21;;;10.43;;
61473;SDS011;53694;49.784;30.150;2023-08-06T03:37:11;13.28;;;10.05;;
61473;SDS011;53694;49.784;30.150;2023-08-06T03:38:13;14.49;;;10.70;;
61473;SDS011;53694;49.784;30.150;2023-08-06T03:39:14;13.04;;;10.43;;
61473;SDS011;53694;49.784;30.150;2023-08-06T03:40:16;13.06;;;9.77;;
61473;SDS011;53694;49.784;30.150;2023-08-06T03:41:17;14.16;;;11.08;;
61473;SDS011;53694;49.784;30.150;2023-08-06T03:42:19;14.11;;;10.94;;
61473;SDS011;53694;49.784;30.150;2023-08-06T03:43:20;16.11;;;11.37;;
61473;SDS011;53694;49.784;30.150;2023-08-06T03:44:22;14.68;;;12.31;;
61473;SDS011;53694;49.784;30.150;2023-08-06T03:45:23;16.22;;;12.69;;
61473;SDS011;53694;49.784;30.150;2023-08-06T03:46:25;15.82;;;13.24;;
61473;SDS011;53694;49.784;30.150;2023-08-06T03:47:27;18.71;;;12.94;;
61473;SDS011;53694;49.784;30.150;2023-08-06T03:48:28;19.13;;;13.86;;
61473;SDS011;53694;49.784;30.150;2023-08-06T03:49:30;16.89;;;13.95;;
61473;SDS011;53694;49.784;30.150;2023-08-06T03:50:32;14.71;;;12.60;;
61473;SDS011;53694;49.784;30.150;2023-08-06T03:51:34;14.79;;;11.36;;
61473;SDS011;53694;49.784;30.150;2023-08-06T03:52:35;12.77;;;10.79;;
61473;SDS011;53694;49.784;30.150;2023-08-06T03:53:37;14.86;;;10.75;;
61473;SDS011;53694;49.784;30.150;2023-08-06T03:54:38;17.28;;;10.39;;
61473;SDS011;53694;49.784;30.150;2023-08-06T03:55:40;14.77;;;11.18;;
61473;SDS011;53694;49.784;30.150;2023-08-06T03:56:41;11.66;;;9.76;;
61473;SDS011;53694;49.784;30.150;2023-08-06T03:57:43;14.39;;;10.45;;
61473;SDS011;53694;49.784;30.150;2023-08-06T03:58:44;13.12;;;10.15;;
61473;SDS011;53694;49.784;30.150;2023-08-06T03:59:46;12.75;;;10.09;;
61473;SDS011;53694;49.784;30.150;2023-08-06T04:00:47;16.41;;;10.56;;
61473;SDS011;53694;49.784;30.150;2023-08-06T04:01:49;15.10;;;10.96;;
61473;SDS011;53694;49.784;30.150;2023-08-06T04:02:51;16.26;;;11.69;;
61473;SDS011;53694;49.784;30.150;2023-08-06T04:03:52;14.07;;;11.34;;
61473;SDS011;53694;49.784;30.150;2023-08-06T04:04:53;15.32;;;12.51;;
61473;SDS011;53694;49.784;30.150;2023-08-06T04:05:55;15.79;;;12.24;;
61473;SDS011;53694;49.784;30.150;2023-08-06T04:06:57;14.21;;;12.71;;
61473;SDS011;53694;49.784;30.150;2023-08-06T04:07:58;16.74;;;13.34;;
61473;SDS011;53694;49.784;30.150;2023-08-06T04:09:00;15.10;;;13.50;;
61473;SDS011;53694;49.784;30.150;2023-08-06T04:10:02;17.54;;;13.52;;
61473;SDS011;53694;49.784;30.150;2023-08-06T04:11:05;14.41;;;11.91;;
61473;SDS011;53694;49.784;30.150;2023-08-06T04:12:07;14.04;;;11.07;;
61473;SDS011;53694;49.784;30.150;2023-08-06T04:13:09;12.41;;;10.56;;
61473;SDS011;53694;49.784;30.150;2023-08-06T04:14:10;15.11;;;10.59;;
61473;SDS011;53694;49.784;30.150;2023-08-06T04:15:12;13.39;;;10.21;;
61473;SDS011;53694;49.784;30.150;2023-08-06T04:16:13;14.32;;;10.31;;
61473;SDS011;53694;49.784;30.150;2023-08-06T04:17:15;13.19;;;9.96;;
61473;SDS011;53694;49.784;30.150;2023-08-06T04:18:16;12.11;;;9.71;;
61473;SDS011;53694;49.784;30.150;2023-08-06T04:19:18;12.01;;;9.62;;
61473;SDS011;53694;49.784;30.150;2023-08-06T04:20:19;13.39;;;10.59;;
61473;SDS011;53694;49.784;30.150;2023-08-06T04:21:21;16.34;;;11.77;;
61473;SDS011;53694;49.784;30.150;2023-08-06T04:22:22;14.01;;;11.36;;
61473;SDS011;53694;49.784;30.150;2023-08-06T04:23:24;14.84;;;11.74;;
61473;SDS011;53694;49.784;30.150;2023-08-06T04:24:25;17.17;;;12.36;;
61473;SDS011;53694;49.784;30.150;2023-08-06T04:25:27;15.04;;;12.52;;
61473;SDS011;53694;49.784;30.150;2023-08-06T04:26:28;15.05;;;12.19;;
61473;SDS011;53694;49.784;30.150;2023-08-06T04:27:30;15.41;;;13.35;;
61473;SDS011;53694;49.784;30.150;2023-08-06T04:28:31;15.90;;;12.61;;
61473;SDS011;53694;49.784;30.150;2023-08-06T04:29:33;15.17;;;13.59;;
61473;SDS011;53694;49.784;30.150;2023-08-06T04:30:35;14.78;;;13.23;;
61473;SDS011;53694;49.784;30.150;2023-08-06T04:31:38;18.06;;;13.25;;
61473;SDS011;53694;49.784;30.150;2023-08-06T04:32:40;12.91;;;11.30;;
61473;SDS011;53694;49.784;30.150;2023-08-06T04:33:41;11.67;;;9.98;;
61473;SDS011;53694;49.784;30.150;2023-08-06T04:34:43;11.29;;;9.60;;
61473;SDS011;53694;49.784;30.150;2023-08-06T04:35:44;14.35;;;10.34;;
61473;SDS011;53694;49.784;30.150;2023-08-06T04:36:46;12.05;;;9.82;;
61473;SDS011;53694;49.784;30.150;2023-08-06T04:37:48;12.92;;;9.64;;
61473;SDS011;53694;49.784;30.150;2023-08-06T04:38:49;14.60;;;9.97;;
61473;SDS011;53694;49.784;30.150;2023-08-06T04:39:51;12.26;;;10.35;;
61473;SDS011;53694;49.784;30.150;2023-08-06T04:40:52;12.49;;;10.59;;
61473;SDS011;53694;49.784;30.150;2023-08-06T04:41:55;13.35;;;11.24;;
61473;SDS011;53694;49.784;30.150;2023-08-06T04:42:57;15.13;;;11.05;;
61473;SDS011;53694;49.784;30.150;2023-08-06T04:43:58;14.98;;;11.36;;
61473;SDS011;53694;49.784;30.150;2023-08-06T04:45:01;15.20;;;12.21;;
61473;SDS011;53694;49.784;30.150;2023-08-06T04:46:03;14.86;;;13.31;;
61473;SDS011;53694;49.784;30.150;2023-08-06T04:47:05;16.09;;;13.08;;
61473;SDS011;53694;49.784;30.150;2023-08-06T04:48:06;14.77;;;12.64;;
61473;SDS011;53694;49.784;30.150;2023-08-06T04:49:08;16.49;;;12.99;;
61473;SDS011;53694;49.784;30.150;2023-08-06T04:50:09;14.91;;;12.78;;
61473;SDS011;53694;49.784;30.150;2023-08-06T04:51:11;15.50;;;13.47;;
61473;SDS011;53694;49.784;30.150;2023-08-06T04:52:12;15.88;;;13.69;;
61473;SDS011;53694;49.784;30.150;2023-08-06T04:53:14;14.55;;;13.09;;
61473;SDS011;53694;49.784;30.150;2023-08-06T04:54:15;15.05;;;11.79;;
61473;SDS011;53694;49.784;30.150;2023-08-06T04:55:17;13.63;;;10.46;;
61473;SDS011;53694;49.784;30.150;2023-08-06T04:56:18;14.24;;;10.44;;
61473;SDS011;53694;49.784;30.150;2023-08-06T04:57:20;12.65;;;9.92;;
61473;SDS011;53694;49.784;30.150;2023-08-06T04:58:22;11.97;;;9.63;;
61473;SDS011;53694;49.784;30.150;2023-08-06T04:59:23;13.94;;;10.20;;
61473;SDS011;53694;49.784;30.150;2023-08-06T05:00:25;12.29;;;10.23;;
61473;SDS011;53694;49.784;30.150;2023-08-06T05:01:26;13.54;;;10.87;;
61473;SDS011;53694;49.784;30.150;2023-08-06T05:02:28;12.22;;;10.46;;
61473;SDS011;53694;49.784;30.150;2023-08-06T05:03:29;13.76;;;10.89;;
61473;SDS011;53694;49.784;30.150;2023-08-06T05:04:31;15.05;;;11.80;;
61473;SDS011;53694;49.784;30.150;2023-08-06T05:05:32;14.02;;;11.89;;
61473;SDS011;53694;49.784;30.150;2023-08-06T05:06:34;16.49;;;12.09;;
61473;SDS011;53694;49.784;30.150;2023-08-06T05:07:35;13.80;;;11.89;;
61473;SDS011;53694;49.784;30.150;2023-08-06T05:08:37;16.36;;;12.49;;
61473;SDS011;53694;49.784;30.150;2023-08-06T05:09:38;15.09;;;12.01;;
61473;SDS011;53694;49.784;30.150;2023-08-06T05:10:41;16.56;;;12.87;;
61473;SDS011;53694;49.784;30.150;2023-08-06T05:11:44;15.18;;;13.36;;
61473;SDS011;53694;49.784;30.150;2023-08-06T05:12:45;15.48;;;12.71;;
61473;SDS011;53694;49.784;30.150;2023-08-06T05:13:47;17.55;;;13.17;;
61473;SDS011;53694;49.784;30.150;2023-08-06T05:14:49;15.84;;;13.09;;
61473;SDS011;53694;49.784;30.150;2023-08-06T05:15:50;14.97;;;12.54;;
61473;SDS011;53694;49.784;30.150;2023-08-06T05:16:54;15.09;;;11.84;;
61473;SDS011;53694;49.784;30.150;2023-08-06T05:17:55;11.84;;;10.46;;
61473;SDS011;53694;49.784;30.150;2023-08-06T05:18:57;13.66;;;9.35;;
61473;SDS011;53694;49.784;30.150;2023-08-06T05:19:58;12.73;;;10.13;;
61473;SDS011;53694;49.784;30.150;2023-08-06T05:21:00;11.98;;;8.89;;
61473;SDS011;53694;49.784;30.150;2023-08-06T05:22:01;14.47;;;9.36;;
61473;SDS011;53694;49.784;30.150;2023-08-06T05:23:03;14.41;;;9.99;;
61473;SDS011;53694;49.784;30.150;2023-08-06T05:24:05;12.74;;;10.41;;
61473;SDS011;53694;49.784;30.150;2023-08-06T05:25:07;14.23;;;10.94;;
61473;SDS011;53694;49.784;30.150;2023-08-06T05:26:09;12.86;;;10.69;;
61473;SDS011;53694;49.784;30.150;2023-08-06T05:27:10;12.35;;;10.65;;
61473;SDS011;53694;49.784;30.150;2023-08-06T05:28:12;12.54;;;10.77;;
61473;SDS011;53694;49.784;30.150;2023-08-06T05:29:13;17.49;;;13.65;;
61473;SDS011;53694;49.784;30.150;2023-08-06T05:30:17;14.17;;;12.41;;
61473;SDS011;53694;49.784;30.150;2023-08-06T05:31:18;15.81;;;12.99;;
61473;SDS011;53694;49.784;30.150;2023-08-06T05:32:20;25.89;;;21.19;;
61473;SDS011;53694;49.784;30.150;2023-08-06T05:33:21;13.82;;;12.21;;
61473;SDS011;53694;49.784;30.150;2023-08-06T05:34:23;14.30;;;12.76;;
61473;SDS011;53694;49.784;30.150;2023-08-06T05:35:24;13.34;;;11.76;;
61473;SDS011;53694;49.784;30.150;2023-08-06T05:36:26;13.12;;;11.84;;
61473;SDS011;53694;49.784;30.150;2023-08-06T05:37:27;16.03;;;12.41;;
61473;SDS011;53694;49.784;30.150;2023-08-06T05:38:29;14.19;;;11.99;;
61473;SDS011;53694;49.784;30.150;2023-08-06T05:39:31;15.17;;;12.94;;
61473;SDS011;53694;49.784;30.150;2023-08-06T05:40:33;16.07;;;13.55;;
61473;SDS011;53694;49.784;30.150;2023-08-06T05:41:35;15.43;;;12.74;;
61473;SDS011;53694;49.784;30.150;2023-08-06T05:42:37;16.89;;;12.33;;
61473;SDS011;53694;49.784;30.150;2023-08-06T05:43:38;17.49;;;13.67;;
61473;SDS011;53694;49.784;30.150;2023-08-06T05:44:40;14.87;;;11.94;;
61473;SDS011;53694;49.784;30.150;2023-08-06T05:45:45;16.12;;;12.89;;
61473;SDS011;53694;49.784;30.150;2023-08-06T05:46:47;15.05;;;12.97;;
61473;SDS011;53694;49.784;30.150;2023-08-06T05:47:50;14.40;;;12.34;;
61473;SDS011;53694;49.784;30.150;2023-08-06T05:48:51;15.18;;;12.04;;
61473;SDS011;53694;49.784;30.150;2023-08-06T05:49:53;17.38;;;12.69;;
61473;SDS011;53694;49.784;30.150;2023-08-06T05:50:55;15.61;;;12.27;;
61473;SDS011;53694;49.784;30.150;2023-08-06T05:51:56;14.06;;;12.49;;
61473;SDS011;53694;49.784;30.150;2023-08-06T05:52:58;14.02;;;12.44;;
61473;SDS011;53694;49.784;30.150;2023-08-06T05:53:59;13.99;;;12.20;;
61473;SDS011;53694;49.784;30.150;2023-08-06T05:55:01;16.60;;;12.80;;
61473;SDS011;53694;49.784;30.150;2023-08-06T05:56:02;15.97;;;12.12;;
61473;SDS011;53694;49.784;30.150;2023-08-06T05:57:05;14.45;;;12.91;;
61473;SDS011;53694;49.784;30.150;2023-08-06T05:58:07;16.61;;;12.57;;
61473;SDS011;53694;49.784;30.150;2023-08-06T05:59:09;14.52;;;12.90;;
61473;SDS011;53694;49.784;30.150;2023-08-06T06:00:11;14.81;;;13.00;;
61473;SDS011;53694;49.784;30.150;2023-08-06T06:01:13;16.43;;;12.33;;
61473;SDS011;53694;49.784;30.150;2023-08-06T06:02:14;15.98;;;12.21;;
61473;SDS011;53694;49.784;30.150;2023-08-06T06:03:16;16.04;;;12.09;;
61473;SDS011;53694;49.784;30.150;2023-08-06T06:04:17;13.01;;;11.59;;
61473;SDS011;53694;49.784;30.150;2023-08-06T06:05:19;14.36;;;11.98;;
61473;SDS011;53694;49.784;30.150;2023-08-06T06:06:20;14.56;;;12.42;;